Time;durP1;ratioP1;P1;durP2;ratioP2;P2;SDS_P1;SDS_P2;PMS_P1;PMS_P2;Temp;Humidity;BMP_temperature;BMP_pressure;BME280_temperature;BME280_humidity;BME280_pressure;Samples;Min_cycle;Max_cycle;Signal;HPM_P1;HPM_P2
2022/02/04 00:04:16;;;;;;;20.88;14.52;;;;;;;;;;6214893;22;20035;-87
2022/02/04 00:06:40;;;;;;;24.85;16.02;;;;;;;;;;6217305;22;20016;-84
2022/02/04 00:09:08;;;;;;;23.60;15.93;;;;;;;;;;6241359;22;20020;-84
2022/02/04 00:23:09;;;;;;;25.45;17.02;;;;;;;;;;6115329;23;20403;-87
2022/02/04 00:25:47;;;;;;;27.55;16.85;;;;;;;;;;6093897;23;20140;-87
2022/02/04 00:28:23;;;;;;;26.23;16.23;;;;;;;;;;6156625;22;20034;-87
2022/02/04 00:31:02;;;;;;;27.30;16.75;;;;;;;;;;6214692;22;20020;-87
2022/02/04 00:33:31;;;;;;;28.00;17.83;;;;;;;;;;6211479;23;20027;-87
2022/02/04 00:36:04;;;;;;;27.05;17.50;;;;;;;;;;6212027;23;20043;-87
2022/02/04 00:38:34;;;;;;;29.45;18.77;;;;;;;;;;6212628;23;20031;-87
2022/02/04 00:41:08;;;;;;;28.35;16.90;;;;;;;;;;6211318;22;20040;-87
2022/02/04 00:43:35;;;;;;;26.67;17.77;;;;;;;;;;6238868;22;20531;-87
2022/02/04 00:46:10;;;;;;;28.42;18.00;;;;;;;;;;6186957;22;20026;-86
2022/02/04 00:48:45;;;;;;;30.17;18.23;;;;;;;;;;6188499;22;20097;-87
2022/02/04 00:51:27;;;;;;;28.20;17.73;;;;;;;;;;6188617;22;20425;-87
2022/02/04 00:54:00;;;;;;;29.20;18.65;;;;;;;;;;6190240;22;20093;-87
2022/02/04 00:56:40;;;;;;;27.65;17.88;;;;;;;;;;6189344;23;20024;-87
2022/02/04 01:26:16;;;;;;;32.13;18.25;;;;;;;;;;6214905;22;20031;-87
2022/02/04 01:28:45;;;;;;;30.90;18.60;;;;;;;;;;6186718;22;20027;-87
2022/02/04 01:31:14;;;;;;;31.23;19.70;;;;;;;;;;6209674;22;20023;-87
2022/02/04 01:33:40;;;;;;;30.75;17.63;;;;;;;;;;6184974;22;20361;-87
2022/02/04 01:36:06;;;;;;;30.20;18.02;;;;;;;;;;6188225;22;20175;-84
2022/02/04 01:38:32;;;;;;;31.10;17.70;;;;;;;;;;6188355;22;20442;-84
2022/02/04 01:40:58;;;;;;;30.52;17.20;;;;;;;;;;6186949;23;20015;-85
2022/02/04 01:43:25;;;;;;;31.80;18.88;;;;;;;;;;6185738;22;20016;-84
2022/02/04 01:45:52;;;;;;;30.95;18.48;;;;;;;;;;6186341;22;20031;-84
2022/02/04 01:48:18;;;;;;;30.00;18.98;;;;;;;;;;6185273;22;20084;-87
2022/02/04 01:50:49;;;;;;;31.35;18.60;;;;;;;;;;6185931;22;20397;-87
2022/02/04 01:53:17;;;;;;;33.20;18.35;;;;;;;;;;6186245;22;20020;-87
2022/02/04 01:55:44;;;;;;;34.60;18.80;;;;;;;;;;6185076;22;20539;-87
2022/02/04 01:58:11;;;;;;;33.22;17.92;;;;;;;;;;6183778;22;20082;-87
2022/02/04 02:00:37;;;;;;;31.08;18.48;;;;;;;;;;6186036;22;20012;-87
2022/02/04 02:03:04;;;;;;;36.10;18.50;;;;;;;;;;6212349;22;20016;-84
2022/02/04 02:05:30;;;;;;;35.22;19.17;;;;;;;;;;6211819;23;20012;-87
2022/02/04 02:08:06;;;;;;;31.88;17.42;;;;;;;;;;6210151;23;20051;-87
2022/02/04 02:10:32;;;;;;;;;;;;;;;;;;6238301;22;20065;-85
2022/02/04 02:13:17;;;;;;;31.50;17.00;;;;;;;;;;6212583;23;19930;-84
2022/02/04 02:15:58;;;;;;;32.53;17.65;;;;;;;;;;6192226;22;20457;-85
2022/02/04 02:35:17;;;;;;;32.78;17.88;;;;;;;;;;6215189;22;20422;-87
2022/02/04 02:43:17;;;;;;;33.25;17.17;;;;;;;;;;6213154;22;20031;-87
2022/02/04 02:49:05;;;;;;;30.65;16.63;;;;;;;;;;6215949;22;20031;-84
2022/02/04 02:54:13;;;;;;;30.77;16.98;;;;;;;;;;6214769;23;20024;-84
2022/02/04 02:57:06;;;;;;;31.85;16.55;;;;;;;;;;6189910;22;20020;-85
2022/02/04 02:59:42;;;;;;;31.33;17.42;;;;;;;;;;6216241;22;20019;-87
2022/02/04 03:02:08;;;;;;;31.70;17.13;;;;;;;;;;6187043;22;20284;-87
2022/02/04 03:04:34;;;;;;;31.17;17.55;;;;;;;;;;6210195;22;20058;-87
2022/02/04 03:06:59;;;;;;;32.78;17.58;;;;;;;;;;6186035;23;20071;-87
2022/02/04 03:09:25;;;;;;;32.30;15.65;;;;;;;;;;6185160;23;20020;-84
2022/02/04 03:11:51;;;;;;;30.42;16.65;;;;;;;;;;6217449;22;20024;-85
2022/02/04 03:14:16;;;;;;;29.45;16.60;;;;;;;;;;6187447;22;20280;-87
2022/02/04 03:16:44;;;;;;;33.05;17.23;;;;;;;;;;6186798;22;20046;-87
2022/02/04 03:19:10;;;;;;;32.28;16.15;;;;;;;;;;6186542;22;20030;-87
2022/02/04 03:21:40;;;;;;;31.77;17.30;;;;;;;;;;6214015;22;20020;-86
2022/02/04 03:24:11;;;;;;;34.72;18.13;;;;;;;;;;6211959;22;20024;-87
2022/02/04 03:26:53;;;;;;;28.60;16.50;;;;;;;;;;6185437;22;20090;-87
2022/02/04 03:29:34;;;;;;;31.85;16.65;;;;;;;;;;6189588;22;20020;-87
2022/02/04 03:32:05;;;;;;;27.23;16.15;;;;;;;;;;6189841;23;20494;-84
2022/02/04 03:34:31;;;;;;;37.72;18.63;;;;;;;;;;6212930;22;20035;-87
2022/02/04 03:36:57;;;;;;;33.88;17.88;;;;;;;;;;6186488;23;20126;-87
2022/02/04 03:39:23;;;;;;;32.97;17.25;;;;;;;;;;6185817;22;20020;-87
2022/02/04 03:41:49;;;;;;;33.75;17.77;;;;;;;;;;6186160;22;20070;-84
2022/02/04 03:44:14;;;;;;;32.92;17.60;;;;;;;;;;6189764;22;20039;-84
2022/02/04 03:46:40;;;;;;;32.97;17.13;;;;;;;;;;6211906;22;20027;-87
2022/02/04 03:49:06;;;;;;;33.45;17.67;;;;;;;;;;6183696;22;20040;-87
2022/02/04 03:51:31;;;;;;;31.85;17.42;;;;;;;;;;6208742;22;20028;-87
2022/02/04 03:53:57;;;;;;;35.42;18.30;;;;;;;;;;6210260;23;20325;-87
2022/02/04 03:56:23;;;;;;;34.13;18.45;;;;;;;;;;6183689;22;20127;-87
2022/02/04 03:58:48;;;;;;;34.00;17.25;;;;;;;;;;6185651;22;20016;-87
2022/02/04 04:01:14;;;;;;;32.85;17.13;;;;;;;;;;6195332;22;20020;-85
2022/02/04 04:03:40;;;;;;;32.97;17.05;;;;;;;;;;6220639;22;20046;-86
2022/02/04 04:06:06;;;;;;;31.02;18.30;;;;;;;;;;6222430;22;20027;-85
2022/02/04 04:08:32;;;;;;;33.92;18.05;;;;;;;;;;6223594;22;20027;-85
2022/02/04 04:10:57;;;;;;;33.90;17.88;;;;;;;;;;6197198;23;20043;-85
2022/02/04 04:13:23;;;;;;;34.17;18.08;;;;;;;;;;6221506;22;20024;-86
2022/02/04 04:15:49;;;;;;;32.85;17.30;;;;;;;;;;6220666;22;20091;-83
2022/02/04 04:18:15;;;;;;;32.42;16.80;;;;;;;;;;6198762;22;20454;-83
2022/02/04 04:20:42;;;;;;;27.63;16.48;;;;;;;;;;6197359;22;20028;-83
2022/02/04 04:23:09;;;;;;;33.22;17.20;;;;;;;;;;6197989;22;20035;-83
2022/02/04 04:25:35;;;;;;;31.95;17.27;;;;;;;;;;6197548;22;20026;-85
2022/02/04 04:28:00;;;;;;;34.60;17.60;;;;;;;;;;6195741;23;20019;-85
2022/02/04 04:30:26;;;;;;;31.95;16.65;;;;;;;;;;6196051;23;20094;-85
2022/02/04 04:32:54;;;;;;;31.17;16.70;;;;;;;;;;6195055;22;20024;-85
2022/02/04 04:35:23;;;;;;;34.10;16.92;;;;;;;;;;6220493;22;20026;-83
2022/02/04 04:40:59;;;;;;;32.10;16.23;;;;;;;;;;6223666;22;20020;-84
2022/02/04 04:43:47;;;;;;;33.53;17.00;;;;;;;;;;6228188;22;20023;-84
2022/02/04 04:47:00;;;;;;;30.80;16.75;;;;;;;;;;6221128;22;20051;-84
2022/02/04 05:30:47;;;;;;;32.08;15.73;;;;;;;;;;6223626;22;20449;-84
2022/02/04 05:33:13;;;;;;;29.25;16.35;;;;;;;;;;6195195;22;20055;-84
2022/02/04 05:35:38;;;;;;;30.38;16.65;;;;;;;;;;6195681;22;20038;-84
2022/02/04 05:38:05;;;;;;;28.08;15.68;;;;;;;;;;6221350;22;20070;-84
2022/02/04 05:40:38;;;;;;;30.85;17.55;;;;;;;;;;6198176;23;20031;-84
2022/02/04 05:43:15;;;;;;;27.15;15.68;;;;;;;;;;6196891;22;20462;-83
2022/02/04 05:45:50;;;;;;;28.95;16.73;;;;;;;;;;6195836;22;20036;-83
2022/02/04 05:48:16;;;;;;;31.40;16.50;;;;;;;;;;6198366;22;20047;-84
2022/02/04 05:50:55;;;;;;;27.85;16.27;;;;;;;;;;6196000;22;20083;-84
2022/02/04 05:53:27;;;;;;;26.73;15.43;;;;;;;;;;6199112;22;20028;-83
2022/02/04 05:56:10;;;;;;;26.83;15.32;;;;;;;;;;6198222;22;20022;-84
2022/02/04 05:58:48;;;;;;;29.13;16.48;;;;;;;;;;6196531;22;20523;-83
2022/02/04 06:01:43;;;;;;;27.38;16.42;;;;;;;;;;6197504;22;20141;-84
2022/02/04 06:07:02;;;;;;;30.27;15.38;;;;;;;;;;6215689;22;20072;-84
2022/02/04 06:10:25;;;;;;;29.15;16.63;;;;;;;;;;6192685;23;20322;-84
2022/02/04 06:12:36;;;;;;;28.00;16.48;;;;;;;;;;6202734;22;20017;-84
2022/02/04 06:23:06;;;;;;;31.08;15.77;;;;;;;;;;6216083;22;20188;-84
2022/02/04 06:25:32;;;;;;;28.13;15.63;;;;;;;;;;6211848;23;20031;-84
2022/02/04 06:27:58;;;;;;;26.42;15.85;;;;;;;;;;6187995;23;20024;-84
2022/02/04 06:30:23;;;;;;;27.88;15.50;;;;;;;;;;6212720;22;20012;-84
2022/02/04 06:32:49;;;;;;;29.50;15.77;;;;;;;;;;6186989;22;20397;-82
2022/02/04 06:35:15;;;;;;;28.45;15.68;;;;;;;;;;6184378;22;20404;-82
2022/02/04 06:37:40;;;;;;;25.35;14.80;;;;;;;;;;6183067;22;20077;-82
2022/02/04 06:40:07;;;;;;;29.95;16.38;;;;;;;;;;6184482;22;20611;-82
2022/02/04 06:42:33;;;;;;;27.33;16.15;;;;;;;;;;6181771;22;20276;-82
2022/02/04 06:44:58;;;;;;;28.10;16.40;;;;;;;;;;6183875;23;20020;-82
2022/02/04 06:47:25;;;;;;;26.23;14.82;;;;;;;;;;6184088;22;20229;-82
2022/02/04 06:49:51;;;;;;;26.10;15.82;;;;;;;;;;6211385;22;20051;-83
2022/02/04 06:52:17;;;;;;;28.15;15.48;;;;;;;;;;6184037;22;20024;-83
2022/02/04 06:54:43;;;;;;;28.25;14.70;;;;;;;;;;6211283;22;20026;-82
2022/02/04 06:57:09;;;;;;;26.52;15.57;;;;;;;;;;6184788;22;20022;-83
2022/02/04 06:59:37;;;;;;;25.85;15.07;;;;;;;;;;6184636;22;20366;-83
2022/02/04 07:02:03;;;;;;;26.88;16.15;;;;;;;;;;6183087;22;20104;-82
2022/02/04 07:04:32;;;;;;;24.77;15.15;;;;;;;;;;6184243;23;20050;-83
2022/02/04 07:06:59;;;;;;;27.65;15.60;;;;;;;;;;6184622;23;20226;-83
2022/02/04 07:09:44;;;;;;;27.48;16.00;;;;;;;;;;6184143;22;20563;-83
2022/02/04 07:12:24;;;;;;;26.38;15.60;;;;;;;;;;6213661;22;20017;-83
2022/02/04 07:17:29;;;;;;;24.48;14.85;;;;;;;;;;6210036;22;20012;-83
2022/02/04 07:19:56;;;;;;;25.02;14.63;;;;;;;;;;6183883;22;20095;-82
2022/02/04 07:22:39;;;;;;;24.15;14.93;;;;;;;;;;6184247;22;20021;-83
2022/02/04 07:25:06;;;;;;;24.73;14.02;;;;;;;;;;6184235;22;20093;-83
2022/02/04 07:27:34;;;;;;;25.55;15.32;;;;;;;;;;6184326;23;20018;-83
2022/02/04 07:30:00;;;;;;;28.85;15.48;;;;;;;;;;6183227;23;20020;-83
2022/02/04 07:32:38;;;;;;;25.90;14.68;;;;;;;;;;6183664;22;20047;-83
2022/02/04 07:43:09;;;;;;;24.60;15.30;;;;;;;;;;6215042;22;20027;-82
2022/02/04 07:45:35;;;;;;;26.33;15.25;;;;;;;;;;6185730;22;20019;-83
2022/02/04 07:48:01;;;;;;;21.73;13.30;;;;;;;;;;6185539;23;20027;-82
2022/02/04 07:50:27;;;;;;;23.42;15.05;;;;;;;;;;6185100;23;20016;-83
2022/02/04 07:52:54;;;;;;;23.02;13.93;;;;;;;;;;6185056;22;20024;-83
2022/02/04 07:55:21;;;;;;;19.98;12.82;;;;;;;;;;6184192;22;20525;-83
2022/02/04 07:57:47;;;;;;;25.08;15.13;;;;;;;;;;6185210;22;20027;-83
2022/02/04 08:00:17;;;;;;;24.70;13.68;;;;;;;;;;6210472;22;20032;-83
2022/02/04 08:02:47;;;;;;;24.73;14.75;;;;;;;;;;6184678;22;20024;-83
2022/02/04 08:05:16;;;;;;;24.80;14.48;;;;;;;;;;6184732;22;20059;-82
2022/02/04 08:07:52;;;;;;;26.58;14.13;;;;;;;;;;6185036;22;20016;-83
2022/02/04 08:10:27;;;;;;;21.92;12.73;;;;;;;;;;6210431;22;20024;-83
2022/02/04 08:13:19;;;;;;;22.15;11.02;;;;;;;;;;6185306;22;20082;-83
2022/02/04 08:27:01;;;;;;;17.85;11.40;;;;;;;;;;6214657;22;20955;-83
2022/02/04 08:37:48;;;;;;;16.23;10.20;;;;;;;;;;6215339;22;20027;-83
2022/02/04 08:54:07;;;;;;;14.95;9.55;;;;;;;;;;6210558;22;20389;-83
2022/02/04 08:56:38;;;;;;;16.88;9.52;;;;;;;;;;6190317;23;20046;-83
2022/02/04 08:59:12;;;;;;;16.60;10.20;;;;;;;;;;6210819;22;20030;-82
2022/02/04 09:01:45;;;;;;;15.85;9.82;;;;;;;;;;6187293;22;20046;-83
2022/02/04 09:04:16;;;;;;;16.08;9.90;;;;;;;;;;6187792;23;20028;-83
2022/02/04 09:06:49;;;;;;;16.83;10.35;;;;;;;;;;6211650;22;20111;-83
2022/02/04 09:09:28;;;;;;;18.13;10.80;;;;;;;;;;6188130;22;20039;-83
2022/02/04 09:12:04;;;;;;;14.35;9.45;;;;;;;;;;6188309;22;20028;-83
2022/02/04 09:17:33;;;;;;;12.63;8.90;;;;;;;;;;6214137;22;20035;-83
2022/02/04 09:20:00;;;;;;;13.70;8.70;;;;;;;;;;6189442;23;20531;-83
2022/02/04 09:22:39;;;;;;;13.90;9.07;;;;;;;;;;6185483;22;20472;-83
2022/02/04 09:25:06;;;;;;;12.40;8.20;;;;;;;;;;6188610;22;20039;-83
2022/02/04 09:27:34;;;;;;;15.50;9.23;;;;;;;;;;6185813;23;20386;-83
2022/02/04 09:30:00;;;;;;;13.35;8.85;;;;;;;;;;6184690;23;20016;-83
2022/02/04 09:32:26;;;;;;;11.63;8.55;;;;;;;;;;6209478;22;20135;-83
2022/02/04 09:34:51;;;;;;;11.90;8.02;;;;;;;;;;6185454;22;20090;-83
2022/02/04 09:37:17;;;;;;;15.00;8.10;;;;;;;;;;6184981;22;20074;-83
2022/02/04 09:39:43;;;;;;;15.38;8.82;;;;;;;;;;6185399;22;20024;-84
2022/02/04 09:42:09;;;;;;;12.65;8.50;;;;;;;;;;6209698;22;20016;-83
2022/02/04 09:44:34;;;;;;;13.13;9.05;;;;;;;;;;6185645;22;20019;-83
2022/02/04 09:47:00;;;;;;;14.68;9.35;;;;;;;;;;6212102;23;20070;-83
2022/02/04 09:49:30;;;;;;;14.75;9.38;;;;;;;;;;6210448;22;20090;-83
2022/02/04 10:06:49;;;;;;;13.82;9.20;;;;;;;;;;6215354;22;20574;-83
2022/02/04 10:09:07;;;;;;;12.65;8.95;;;;;;;;;;6218935;22;20012;-83
2022/02/04 10:12:08;;;;;;;14.43;9.35;;;;;;;;;;6213666;22;20065;-83
2022/02/04 10:17:21;;;;;;;12.52;8.48;;;;;;;;;;6212370;22;20024;-83
2022/02/04 10:22:25;;;;;;;15.55;9.90;;;;;;;;;;6210158;22;20028;-84
2022/02/04 10:24:55;;;;;;;13.15;9.27;;;;;;;;;;6185136;22;20022;-83
2022/02/04 10:27:22;;;;;;;12.50;9.02;;;;;;;;;;6208679;22;20034;-83
2022/02/04 10:29:59;;;;;;;14.30;9.20;;;;;;;;;;6184542;22;20321;-83
2022/02/04 10:32:36;;;;;;;14.77;9.45;;;;;;;;;;6183515;22;20023;-83
2022/02/04 10:35:15;;;;;;;16.08;9.70;;;;;;;;;;6210250;23;20385;-84
2022/02/04 10:37:44;;;;;;;13.57;9.45;;;;;;;;;;6183273;22;20091;-83
2022/02/04 10:40:32;;;;;;;15.13;9.88;;;;;;;;;;6210122;22;20026;-84
2022/02/04 10:43:14;;;;;;;15.60;9.65;;;;;;;;;;6184694;22;20275;-83
2022/02/04 10:45:54;;;;;;;14.52;9.82;;;;;;;;;;6213181;22;20302;-83
2022/02/04 10:56:59;;;;;;;14.32;9.40;;;;;;;;;;6187820;22;20036;-85
2022/02/04 11:04:36;;;;;;;17.38;10.18;;;;;;;;;;6208725;22;20512;-83
2022/02/04 11:07:21;;;;;;;14.02;9.75;;;;;;;;;;6186920;23;20019;-82
2022/02/04 11:10:07;;;;;;;14.68;9.30;;;;;;;;;;6187707;22;20331;-83
2022/02/04 11:35:18;;;;;;;11.98;8.48;;;;;;;;;;6207829;22;20022;-82
2022/02/04 11:43:52;;;;;;;10.00;7.90;;;;;;;;;;6212024;22;20419;-82
2022/02/04 11:52:32;;;;;;;10.40;7.15;;;;;;;;;;6236749;22;20024;-83
2022/02/04 11:55:00;;;;;;;9.70;7.03;;;;;;;;;;6210548;22;20066;-83
2022/02/04 11:57:37;;;;;;;10.95;8.10;;;;;;;;;;6186043;22;20040;-83
2022/02/04 12:00:15;;;;;;;9.23;6.90;;;;;;;;;;6185122;23;20020;-82
2022/02/04 12:02:41;;;;;;;10.02;7.72;;;;;;;;;;6210021;22;20024;-82
2022/02/04 12:05:15;;;;;;;11.30;7.03;;;;;;;;;;6185277;22;20099;-82
2022/02/04 12:07:47;;;;;;;10.18;7.10;;;;;;;;;;6238202;22;20629;-84
2022/02/04 12:10:13;;;;;;;9.45;6.30;;;;;;;;;;6184682;22;20098;-80
2022/02/04 12:12:58;;;;;;;9.57;7.15;;;;;;;;;;6209471;22;20454;-82
2022/02/04 12:15:47;;;;;;;9.77;7.23;;;;;;;;;;6209356;22;20027;-83
2022/02/04 12:18:20;;;;;;;6.25;5.13;;;;;;;;;;6208513;22;20020;-83
2022/02/04 12:20:57;;;;;;;9.30;6.45;;;;;;;;;;6183903;22;20027;-83
2022/02/04 12:23:29;;;;;;;7.30;5.80;;;;;;;;;;6211897;22;20046;-84
2022/02/04 12:26:04;;;;;;;8.50;5.22;;;;;;;;;;6238799;22;20016;-84
2022/02/04 12:28:55;;;;;;;7.27;5.53;;;;;;;;;;6186154;23;20016;-84
2022/02/04 12:31:24;;;;;;;7.22;5.25;;;;;;;;;;6186078;22;20044;-83
2022/02/04 12:34:03;;;;;;;7.07;5.22;;;;;;;;;;6185961;22;20026;-84
2022/02/04 12:36:39;;;;;;;5.03;3.25;;;;;;;;;;6211345;22;20362;-83
2022/02/04 12:39:07;;;;;;;6.47;4.95;;;;;;;;;;6185199;23;20032;-83
2022/02/04 12:41:36;;;;;;;5.32;4.35;;;;;;;;;;6211565;23;20085;-83
2022/02/04 12:44:05;;;;;;;5.70;4.63;;;;;;;;;;6184262;23;20401;-83
2022/02/04 12:46:32;;;;;;;5.82;4.63;;;;;;;;;;6210443;23;20446;-83
2022/02/04 12:49:00;;;;;;;5.72;4.65;;;;;;;;;;6185366;22;20023;-84
2022/02/04 12:51:43;;;;;;;6.90;4.85;;;;;;;;;;6183978;22;20063;-84
2022/02/04 12:54:10;;;;;;;6.78;5.30;;;;;;;;;;6186265;22;20080;-83
2022/02/04 12:56:39;;;;;;;5.15;4.65;;;;;;;;;;6209554;22;20292;-83
2022/02/04 12:59:41;;;;;;;8.48;5.43;;;;;;;;;;6186617;23;20028;-83
2022/02/04 13:02:23;;;;;;;6.60;5.00;;;;;;;;;;6215247;22;20024;-84
2022/02/04 13:07:48;;;;;;;6.30;4.68;;;;;;;;;;6217073;22;20023;-84
2022/02/04 13:10:23;;;;;;;7.97;5.03;;;;;;;;;;6187090;22;20024;-82
2022/02/04 13:12:57;;;;;;;6.18;4.70;;;;;;;;;;6184716;22;20034;-83
2022/02/04 13:15:23;;;;;;;6.22;5.30;;;;;;;;;;6185362;22;20362;-82
2022/02/04 13:17:49;;;;;;;5.60;4.47;;;;;;;;;;6211500;22;20016;-82
2022/02/04 13:20:16;;;;;;;5.90;4.68;;;;;;;;;;6185221;22;20438;-82
2022/02/04 13:22:42;;;;;;;6.63;4.50;;;;;;;;;;6209587;22;20210;-82
2022/02/04 13:25:28;;;;;;;5.70;4.68;;;;;;;;;;6185508;22;20019;-82
2022/02/04 13:28:03;;;;;;;5.80;5.20;;;;;;;;;;6184870;22;20036;-81
2022/02/04 13:30:31;;;;;;;5.22;4.15;;;;;;;;;;6183384;22;20042;-81
2022/02/04 13:32:58;;;;;;;6.65;4.53;;;;;;;;;;6184438;22;20051;-82
2022/02/04 13:35:38;;;;;;;5.47;4.43;;;;;;;;;;6185072;22;20020;-82
2022/02/04 13:38:21;;;;;;;7.30;5.18;;;;;;;;;;6186729;23;20023;-83
2022/02/04 13:41:02;;;;;;;5.00;4.05;;;;;;;;;;6185727;22;20019;-83
2022/02/04 13:43:43;;;;;;;6.32;4.60;;;;;;;;;;6186284;22;20044;-83
2022/02/04 13:46:36;;;;;;;5.78;4.65;;;;;;;;;;6186950;22;20038;-86
2022/02/04 13:49:14;;;;;;;6.63;4.65;;;;;;;;;;6216013;22;20039;-85
2022/02/04 13:51:46;;;;;;;5.60;4.00;;;;;;;;;;6190140;22;20070;-86
2022/02/04 13:54:25;;;;;;;7.70;4.93;;;;;;;;;;6213897;22;20020;-85
2022/02/04 13:57:14;;;;;;;8.05;4.78;;;;;;;;;;6187001;22;20012;-83
2022/02/04 13:59:56;;;;;;;5.00;4.50;;;;;;;;;;6210844;22;20016;-83
2022/02/04 14:02:27;;;;;;;4.90;4.20;;;;;;;;;;6188977;22;20024;-83
2022/02/04 14:04:57;;;;;;;6.13;4.90;;;;;;;;;;6184688;22;20388;-84
2022/02/04 14:07:39;;;;;;;6.75;4.55;;;;;;;;;;6182586;22;20021;-84
2022/02/04 14:10:21;;;;;;;5.80;4.00;;;;;;;;;;6183551;23;20441;-84
2022/02/04 14:13:08;;;;;;;5.97;4.43;;;;;;;;;;6183205;22;20421;-84
2022/02/04 14:15:40;;;;;;;4.65;3.30;;;;;;;;;;6183644;23;20016;-83
2022/02/04 14:18:09;;;;;;;3.53;3.22;;;;;;;;;;6184476;23;20448;-83
2022/02/04 14:20:38;;;;;;;3.92;2.90;;;;;;;;;;6185207;23;20419;-84
2022/02/04 14:23:08;;;;;;;3.47;3.17;;;;;;;;;;6184282;23;20122;-83
2022/02/04 14:25:50;;;;;;;5.40;3.25;;;;;;;;;;6208964;23;20074;-84
2022/02/04 14:28:20;;;;;;;3.72;2.70;;;;;;;;;;6209527;22;20099;-83
2022/02/04 14:30:51;;;;;;;2.50;2.17;;;;;;;;;;6185748;22;20012;-84
2022/02/04 14:34:13;;;;;;;5.63;2.60;;;;;;;;;;6210779;22;20024;-84
2022/02/04 14:36:16;;;;;;;2.58;2.35;;;;;;;;;;6214812;22;20465;-84
2022/02/04 14:50:24;;;;;;;3.25;2.22;;;;;;;;;;6213172;22;20453;-84
2022/02/04 14:58:44;;;;;;;2.60;2.40;;;;;;;;;;6213438;22;20027;-83
2022/02/04 15:04:21;;;;;;;3.00;2.42;;;;;;;;;;6181817;22;20016;-83
2022/02/04 15:06:57;;;;;;;2.72;2.10;;;;;;;;;;6186012;22;20433;-84
2022/02/04 15:09:22;;;;;;;3.22;2.00;;;;;;;;;;6209474;22;20024;-84
2022/02/04 15:11:48;;;;;;;2.22;1.80;;;;;;;;;;6183346;22;20020;-84
2022/02/04 15:14:16;;;;;;;2.75;1.90;;;;;;;;;;6183761;22;20082;-84
2022/02/04 15:16:44;;;;;;;1.70;1.60;;;;;;;;;;6184509;22;20024;-84
2022/02/04 15:19:10;;;;;;;1.65;1.55;;;;;;;;;;6209155;22;20020;-83
2022/02/04 15:21:36;;;;;;;3.35;1.60;;;;;;;;;;6184376;23;20016;-83
2022/02/04 15:24:03;;;;;;;3.53;1.75;;;;;;;;;;6209465;23;20043;-84
2022/02/04 15:26:30;;;;;;;2.10;1.67;;;;;;;;;;6184398;22;20016;-84
2022/02/04 15:29:01;;;;;;;1.67;1.30;;;;;;;;;;6184013;22;20023;-83
2022/02/04 15:33:53;;;;;;;1.63;1.23;;;;;;;;;;6209679;22;20059;-83
2022/02/04 15:36:26;;;;;;;1.52;1.42;;;;;;;;;;6183735;22;20095;-84
2022/02/04 15:38:52;;;;;;;1.67;1.25;;;;;;;;;;6184871;22;20056;-84
2022/02/04 15:41:21;;;;;;;1.50;1.30;;;;;;;;;;6184186;22;20505;-84
2022/02/04 15:43:51;;;;;;;2.53;1.30;;;;;;;;;;6184144;22;20016;-83
2022/02/04 15:47:14;;;;;;;1.60;1.20;;;;;;;;;;6185784;22;20310;-84
2022/02/04 15:51:41;;;;;;;1.42;1.33;;;;;;;;;;6207993;23;20019;-83
2022/02/04 15:59:43;;;;;;;1.20;1.10;;;;;;;;;;6211819;22;20083;-83
2022/02/04 16:02:24;;;;;;;0.95;0.90;;;;;;;;;;6192258;22;20016;-83
2022/02/04 16:04:51;;;;;;;1.40;1.00;;;;;;;;;;6188402;22;20228;-84
2022/02/04 16:07:19;;;;;;;1.27;1.17;;;;;;;;;;6186241;22;20020;-83
2022/02/04 16:09:50;;;;;;;1.63;1.08;;;;;;;;;;6185778;22;20020;-83
2022/02/04 16:12:23;;;;;;;1.58;1.02;;;;;;;;;;6211055;22;20825;-83
2022/02/04 16:14:58;;;;;;;0.70;0.70;;;;;;;;;;6211442;22;20020;-84
2022/02/04 16:17:33;;;;;;;0.90;0.90;;;;;;;;;;6186558;22;20114;-84
2022/02/04 16:20:13;;;;;;;0.80;0.80;;;;;;;;;;6188153;22;20023;-83
2022/02/04 16:22:59;;;;;;;1.63;1.02;;;;;;;;;;6187896;22;20044;-83
2022/02/04 16:25:41;;;;;;;;;;;;;;;;;;6192009;22;20028;-84
2022/02/04 16:30:52;;;;;;;2.60;1.10;;;;;;;;;;6213762;22;20016;-83
2022/02/04 16:33:18;;;;;;;1.70;1.10;;;;;;;;;;6184765;22;20266;-84
2022/02/04 16:35:43;;;;;;;1.90;1.48;;;;;;;;;;6184771;22;20038;-83
2022/02/04 16:38:16;;;;;;;1.10;0.70;;;;;;;;;;6185239;22;20020;-84
2022/02/04 16:40:45;;;;;;;2.47;2.28;;;;;;;;;;6211670;22;20012;-83
2022/02/04 16:43:11;;;;;;;5.75;3.75;;;;;;;;;;6210299;22;20115;-83
2022/02/04 16:45:36;;;;;;;1.52;1.02;;;;;;;;;;6185190;23;20024;-84
2022/02/04 16:48:02;;;;;;;2.35;0.90;;;;;;;;;;6184983;23;20101;-83
2022/02/04 16:50:28;;;;;;;2.03;1.25;;;;;;;;;;6184759;22;20094;-84
2022/02/04 16:52:54;;;;;;;1.10;1.00;;;;;;;;;;6210573;22;20709;-84
2022/02/04 16:55:20;;;;;;;1.65;1.00;;;;;;;;;;6183825;22;20461;-83
2022/02/04 16:57:47;;;;;;;1.15;0.75;;;;;;;;;;6209547;22;20060;-83
2022/02/04 17:00:21;;;;;;;1.20;1.02;;;;;;;;;;6190826;22;20356;-83
2022/02/04 17:02:53;;;;;;;1.20;1.08;;;;;;;;;;6190198;22;20032;-83
2022/02/04 17:05:22;;;;;;;0.98;0.77;;;;;;;;;;6186869;22;20040;-83
2022/02/04 17:07:56;;;;;;;1.52;0.90;;;;;;;;;;6185414;22;20016;-83
2022/02/04 17:10:32;;;;;;;0.80;0.70;;;;;;;;;;6185508;22;20016;-83
2022/02/04 17:13:01;;;;;;;1.15;0.90;;;;;;;;;;6186170;22;20024;-83
2022/02/04 17:15:32;;;;;;;0.82;0.82;;;;;;;;;;6184402;22;20075;-83
2022/02/04 17:18:00;;;;;;;0.60;0.60;;;;;;;;;;6184174;22;20026;-83
2022/02/04 17:20:26;;;;;;;0.90;0.70;;;;;;;;;;6183579;22;20035;-84
2022/02/04 17:22:52;;;;;;;1.58;0.85;;;;;;;;;;6208297;22;20012;-84
2022/02/04 17:25:25;;;;;;;1.08;0.95;;;;;;;;;;6169140;23;20042;-83
2022/02/04 17:27:52;;;;;;;1.05;0.68;;;;;;;;;;6189625;22;20012;-83
2022/02/04 17:30:18;;;;;;;0.63;0.63;;;;;;;;;;6188504;22;20016;-83
2022/02/04 17:32:44;;;;;;;0.82;0.60;;;;;;;;;;6187480;22;20024;-83
2022/02/04 17:35:11;;;;;;;0.70;0.70;;;;;;;;;;6184009;22;20335;-83
2022/02/04 17:37:37;;;;;;;0.70;0.60;;;;;;;;;;6184609;23;20016;-83
2022/02/04 17:40:05;;;;;;;0.75;0.75;;;;;;;;;;6184587;23;20392;-83
2022/02/04 17:42:32;;;;;;;1.77;0.90;;;;;;;;;;6208229;22;20078;-83
2022/02/04 17:44:58;;;;;;;1.00;0.80;;;;;;;;;;6207966;22;20020;-83
2022/02/04 17:47:27;;;;;;;1.05;1.05;;;;;;;;;;6183506;22;20028;-83
2022/02/04 17:50:21;;;;;;;0.90;0.70;;;;;;;;;;6184466;22;20012;-83
2022/02/04 17:52:52;;;;;;;0.80;0.80;;;;;;;;;;6212743;22;20020;-83
2022/02/04 17:55:31;;;;;;;1.45;0.98;;;;;;;;;;6210300;22;20024;-83
2022/02/04 17:58:09;;;;;;;1.10;0.88;;;;;;;;;;6186318;22;20129;-83
2022/02/04 18:01:00;;;;;;;1.55;0.90;;;;;;;;;;6186675;23;20016;-83
2022/02/04 18:05:13;;;;;;;1.02;0.80;;;;;;;;;;6212286;22;20730;-83
2022/02/04 18:06:56;;;;;;;0.73;0.73;;;;;;;;;;6213591;22;20498;-83
2022/02/04 18:09:18;;;;;;;0.77;0.60;;;;;;;;;;6214033;22;20032;-83
2022/02/04 18:11:44;;;;;;;1.05;0.95;;;;;;;;;;6181602;22;20043;-83
2022/02/04 18:14:11;;;;;;;1.00;0.70;;;;;;;;;;6181570;22;20020;-83
2022/02/04 18:16:37;;;;;;;2.22;0.80;;;;;;;;;;6181531;23;20016;-83
2022/02/04 18:19:03;;;;;;;2.42;1.00;;;;;;;;;;6206758;23;20043;-83
2022/02/04 18:21:28;;;;;;;1.17;1.08;;;;;;;;;;6205804;22;20016;-83
2022/02/04 18:23:54;;;;;;;0.88;0.88;;;;;;;;;;6181495;22;20022;-83
2022/02/04 18:26:20;;;;;;;1.45;0.93;;;;;;;;;;6181111;22;20051;-83
2022/02/04 18:28:47;;;;;;;1.05;0.90;;;;;;;;;;6182643;22;20681;-83
2022/02/04 18:31:14;;;;;;;0.50;0.50;;;;;;;;;;6183299;22;20086;-83
2022/02/04 18:33:40;;;;;;;1.00;0.70;;;;;;;;;;6182389;22;20022;-83
2022/02/04 18:36:05;;;;;;;0.82;0.82;;;;;;;;;;6181880;23;20028;-83
2022/02/04 18:38:48;;;;;;;1.70;0.80;;;;;;;;;;6207819;22;20097;-84
2022/02/04 18:44:02;;;;;;;1.10;1.00;;;;;;;;;;6211293;22;20480;-83
2022/02/04 18:49:00;;;;;;;2.45;1.00;;;;;;;;;;6207188;22;20159;-83
2022/02/04 18:59:20;;;;;;;0.77;0.77;;;;;;;;;;6208818;22;20040;-83
2022/02/04 19:01:47;;;;;;;0.90;0.60;;;;;;;;;;6181070;22;20016;-84
2022/02/04 19:04:18;;;;;;;1.23;0.77;;;;;;;;;;6181104;22;20026;-83
2022/02/04 19:06:49;;;;;;;0.73;0.55;;;;;;;;;;6184729;22;20028;-83
2022/02/04 19:09:15;;;;;;;0.88;0.80;;;;;;;;;;6184538;22;20048;-83
2022/02/04 19:11:46;;;;;;;1.17;0.80;;;;;;;;;;6182023;22;20051;-83
2022/02/04 19:14:31;;;;;;;0.80;0.77;;;;;;;;;;6182903;22;20031;-83
2022/02/04 19:17:06;;;;;;;0.70;0.70;;;;;;;;;;6210063;22;20027;-83
2022/02/04 19:19:46;;;;;;;0.52;0.50;;;;;;;;;;6208009;22;20027;-83
2022/02/04 19:24:44;;;;;;;1.05;0.90;;;;;;;;;;6208532;23;20046;-84
2022/02/04 19:27:10;;;;;;;0.75;0.65;;;;;;;;;;6181321;22;20012;-83
2022/02/04 19:29:42;;;;;;;0.82;0.80;;;;;;;;;;6182133;23;20529;-84
2022/02/04 19:32:08;;;;;;;1.30;1.20;;;;;;;;;;6209693;22;20024;-83
2022/02/04 19:34:34;;;;;;;1.02;0.85;;;;;;;;;;6183989;23;20399;-83
2022/02/04 19:37:00;;;;;;;2.10;2.00;;;;;;;;;;6208221;22;20074;-83
2022/02/04 19:39:28;;;;;;;0.77;0.77;;;;;;;;;;6209347;22;20441;-83
2022/02/04 19:44:30;;;;;;;1.17;0.90;;;;;;;;;;6211550;22;20043;-83
2022/02/04 19:47:02;;;;;;;0.90;0.90;;;;;;;;;;6209390;22;20361;-83
2022/02/04 19:49:36;;;;;;;1.17;1.17;;;;;;;;;;6186134;22;20345;-84
2022/02/04 19:52:17;;;;;;;1.20;1.10;;;;;;;;;;6210725;22;20023;-83